Time;durP1;ratioP1;P1;durP2;ratioP2;P2;SDS_P1;SDS_P2;PMS_P1;PMS_P2;Temp;Humidity;BMP_temperature;BMP_pressure;BME280_temperature;BME280_humidity;BME280_pressure;Samples;Min_cycle;Max_cycle;Signal;HPM_P1;HPM_P2
2023/06/01 00:00:55;;;;;;;4.13;1.98;;;18.70;88.30;;;;;;5011063;28;20029;-49
2023/06/01 00:03:21;;;;;;;3.92;1.98;;;18.70;88.40;;;;;;5010882;28;20026;-47
2023/06/01 00:05:47;;;;;;;7.93;2.47;;;18.70;88.60;;;;;;5002786;28;20023;-50
2023/06/01 00:08:12;;;;;;;2.90;2.05;;;18.60;88.80;;;;;;4995085;28;20027;-52
2023/06/01 00:10:38;;;;;;;4.15;2.30;;;18.60;89.00;;;;;;4995678;28;20027;-52
2023/06/01 00:13:03;;;;;;;6.07;2.00;;;18.60;89.20;;;;;;4995852;28;20100;-50
2023/06/01 00:15:29;;;;;;;8.00;3.65;;;18.50;89.50;;;;;;4996145;28;20109;-48
2023/06/01 00:17:55;;;;;;;3.03;1.88;;;18.50;89.80;;;;;;4996800;28;20086;-51
2023/06/01 00:20:23;;;;;;;2.47;1.90;;;18.40;90.00;;;;;;4994644;28;20072;-51
2023/06/01 00:22:49;;;;;;;8.73;2.63;;;18.40;90.10;;;;;;4994458;28;20027;-50
2023/06/01 00:25:15;;;;;;;7.63;2.67;;;18.30;90.20;;;;;;4996090;28;20390;-50
2023/06/01 00:27:40;;;;;;;4.53;1.98;;;18.30;90.20;;;;;;4996217;28;20076;-47
2023/06/01 00:30:06;;;;;;;3.05;2.10;;;18.30;90.40;;;;;;4995810;28;20026;-47
2023/06/01 00:32:32;;;;;;;2.50;2.20;;;18.30;90.50;;;;;;4994556;28;20045;-47
2023/06/01 00:34:57;;;;;;;2.35;1.80;;;18.30;90.60;;;;;;4996312;28;20041;-49
2023/06/01 00:37:23;;;;;;;4.07;2.00;;;18.20;90.60;;;;;;4996846;28;20026;-52
2023/06/01 00:39:48;;;;;;;8.68;2.40;;;18.20;90.70;;;;;;4996505;28;20080;-47
2023/06/01 00:42:14;;;;;;;7.90;2.63;;;18.10;90.80;;;;;;4996568;28;20509;-48
2023/06/01 00:44:39;;;;;;;4.68;2.42;;;18.10;91.10;;;;;;4997133;28;20031;-49
2023/06/01 00:47:06;;;;;;;5.05;3.15;;;18.10;91.20;;;;;;4997228;28;20490;-49
2023/06/01 00:49:31;;;;;;;5.00;2.13;;;18.00;91.20;;;;;;4997348;28;20027;-49
2023/06/01 00:51:57;;;;;;;5.60;2.50;;;18.00;91.30;;;;;;4996088;28;20105;-47
2023/06/01 00:54:22;;;;;;;7.30;2.50;;;18.00;91.30;;;;;;4996987;28;20026;-48
2023/06/01 00:56:48;;;;;;;3.90;2.05;;;18.00;91.40;;;;;;4995971;28;20052;-51
2023/06/01 00:59:14;;;;;;;4.47;2.40;;;17.90;91.60;;;;;;4996564;28;20026;-50
2023/06/01 01:01:42;;;;;;;7.65;2.35;;;17.90;91.70;;;;;;4997117;28;20508;-46
2023/06/01 01:04:09;;;;;;;7.53;2.20;;;17.80;91.90;;;;;;4999012;28;20026;-50
2023/06/01 01:07:20;;;;;;;7.82;2.22;;;17.80;92.00;;;;;;4999416;28;20109;-47
2023/06/01 01:10:02;;;;;;;5.13;2.50;;;17.80;92.20;;;;;;4998673;28;20027;-47
2023/06/01 01:13:05;;;;;;;3.92;2.30;;;17.70;92.40;;;;;;4998836;28;20042;-48
2023/06/01 01:15:51;;;;;;;4.65;2.58;;;17.60;92.60;;;;;;4976950;28;20372;-53
2023/06/01 01:18:24;;;;;;;3.38;2.33;;;17.60;92.80;;;;;;4999333;28;20121;-49
2023/06/01 01:21:00;;;;;;;8.55;2.67;;;17.50;92.90;;;;;;4999092;28;20022;-49
2023/06/01 01:23:59;;;;;;;6.32;2.33;;;17.50;93.10;;;;;;4998903;28;20478;-48
2023/06/01 01:26:24;;;;;;;4.97;2.45;;;17.50;93.40;;;;;;4999493;28;20030;-46
2023/06/01 01:28:53;;;;;;;7.43;2.60;;;17.40;93.60;;;;;;4999296;28;20443;-47
2023/06/01 01:31:23;;;;;;;7.47;2.38;;;17.40;93.70;;;;;;4998299;28;20064;-52
2023/06/01 01:33:51;;;;;;;4.10;2.72;;;17.30;93.90;;;;;;4998269;28;20049;-46
2023/06/01 01:36:17;;;;;;;5.93;2.22;;;17.30;94.10;;;;;;4999303;28;20106;-52
2023/06/01 01:38:43;;;;;;;5.07;2.22;;;17.30;94.30;;;;;;4997601;28;20148;-49
2023/06/01 01:41:08;;;;;;;5.13;2.33;;;17.30;94.30;;;;;;4998375;28;20022;-50
2023/06/01 01:43:35;;;;;;;6.38;2.08;;;17.30;94.50;;;;;;4997071;28;20030;-52
2023/06/01 01:46:17;;;;;;;4.78;2.05;;;17.30;94.70;;;;;;4998349;28;20030;-50
2023/06/01 01:49:04;;;;;;;4.65;2.60;;;17.20;94.80;;;;;;4998625;28;20468;-50
2023/06/01 01:51:39;;;;;;;7.82;2.70;;;17.20;95.00;;;;;;4997892;28;20113;-52
2023/06/01 01:54:07;;;;;;;6.50;2.78;;;17.20;95.20;;;;;;4998261;28;20034;-49
2023/06/01 01:56:35;;;;;;;5.22;2.35;;;17.20;95.40;;;;;;4998848;28;20402;-50
2023/06/01 01:59:02;;;;;;;6.43;2.50;;;17.10;95.60;;;;;;4998601;28;20037;-52
2023/06/01 02:01:28;;;;;;;6.97;2.60;;;17.10;95.70;;;;;;4998065;28;20037;-49
2023/06/01 02:04:03;;;;;;;9.07;2.75;;;17.10;95.90;;;;;;4998168;28;20030;-50
2023/06/01 02:06:29;;;;;;;4.22;2.60;;;17.10;96.10;;;;;;4998165;28;20023;-47
2023/06/01 02:08:54;;;;;;;12.45;2.25;;;17.00;96.30;;;;;;4998241;28;20022;-50
2023/06/01 02:11:20;;;;;;;7.35;2.45;;;17.00;96.40;;;;;;4998141;28;20042;-50
2023/06/01 02:13:46;;;;;;;5.47;2.15;;;17.00;96.50;;;;;;4996748;28;20038;-52
2023/06/01 02:16:12;;;;;;;7.35;2.30;;;17.00;96.60;;;;;;4998692;28;20116;-47
2023/06/01 02:18:39;;;;;;;4.55;2.53;;;17.00;96.80;;;;;;4997765;28;20036;-50
2023/06/01 02:21:05;;;;;;;6.82;2.72;;;16.90;97.10;;;;;;4997796;28;20541;-47
2023/06/01 02:23:31;;;;;;;10.90;3.08;;;16.90;97.20;;;;;;4996316;28;20026;-48
2023/06/01 02:25:56;;;;;;;6.95;2.38;;;16.90;97.40;;;;;;4997850;28;20065;-47
2023/06/01 02:28:22;;;;;;;5.80;3.10;;;16.80;97.60;;;;;;4997947;28;20031;-48
2023/06/01 02:30:47;;;;;;;5.03;2.35;;;16.70;97.70;;;;;;4998018;28;20030;-51
2023/06/01 02:33:13;;;;;;;5.25;2.28;;;16.70;97.90;;;;;;4996416;28;20034;-47
2023/06/01 02:35:39;;;;;;;5.55;2.42;;;16.70;98.10;;;;;;4997105;28;20030;-47
2023/06/01 02:38:05;;;;;;;5.80;2.53;;;16.70;98.20;;;;;;4996590;28;20072;-47
2023/06/01 02:40:30;;;;;;;7.43;2.83;;;16.70;98.30;;;;;;4996441;28;20023;-47
2023/06/01 02:42:55;;;;;;;4.85;2.38;;;16.60;98.30;;;;;;4996708;28;20458;-52
2023/06/01 02:45:21;;;;;;;4.35;2.53;;;16.60;98.50;;;;;;4997326;28;20034;-53
2023/06/01 02:47:47;;;;;;;7.60;2.58;;;16.60;98.50;;;;;;4995922;28;20023;-51
2023/06/01 02:50:12;;;;;;;4.25;2.10;;;16.60;98.70;;;;;;4995976;28;20076;-53
2023/06/01 02:52:38;;;;;;;8.48;2.70;;;16.60;98.70;;;;;;4996997;28;20054;-51
2023/06/01 02:55:05;;;;;;;4.63;2.90;;;16.50;98.70;;;;;;4997015;28;20038;-53
2023/06/01 02:57:31;;;;;;;4.13;2.78;;;16.50;98.80;;;;;;4996759;28;20049;-50
2023/06/01 02:59:56;;;;;;;2.88;2.35;;;16.50;99.00;;;;;;4996055;28;20031;-48
2023/06/01 03:02:22;;;;;;;7.82;2.60;;;16.50;98.90;;;;;;4996068;28;20022;-50
2023/06/01 03:04:48;;;;;;;6.35;3.15;;;16.50;99.00;;;;;;4993394;28;20113;-47
2023/06/01 03:07:14;;;;;;;6.97;2.78;;;16.50;99.10;;;;;;4992034;28;20096;-48
2023/06/01 03:09:40;;;;;;;9.15;2.22;;;16.50;99.10;;;;;;4993029;28;20058;-46
2023/06/01 03:12:06;;;;;;;3.70;2.40;;;16.40;99.20;;;;;;4992347;28;20037;-47
2023/06/01 03:14:31;;;;;;;6.97;1.98;;;16.40;99.20;;;;;;4992626;28;20030;-46
2023/06/01 03:16:57;;;;;;;6.10;2.65;;;16.40;99.40;;;;;;4991500;28;20033;-47
2023/06/01 03:19:22;;;;;;;2.65;2.20;;;16.40;99.40;;;;;;4992939;28;20037;-46
2023/06/01 03:21:48;;;;;;;7.65;2.53;;;16.40;99.50;;;;;;4992386;28;20022;-45
2023/06/01 03:24:14;;;;;;;3.95;2.25;;;16.30;99.50;;;;;;4992280;28;20028;-46
2023/06/01 03:26:40;;;;;;;2.25;2.00;;;16.30;99.70;;;;;;4992851;28;20105;-50
2023/06/01 03:29:06;;;;;;;7.78;3.00;;;16.30;99.90;;;;;;4993073;28;20058;-51
2023/06/01 03:31:34;;;;;;;7.28;2.80;;;16.20;99.90;;;;;;4992163;28;20527;-50
2023/06/01 03:34:00;;;;;;;5.80;3.13;;;16.20;99.90;;;;;;4992246;28;20022;-51
2023/06/01 03:36:26;;;;;;;4.72;2.65;;;16.20;99.90;;;;;;4992431;28;20085;-47
2023/06/01 03:38:51;;;;;;;9.35;3.65;;;16.10;99.90;;;;;;4992635;28;20045;-45
2023/06/01 03:41:16;;;;;;;9.10;3.40;;;16.10;99.90;;;;;;4991907;28;20035;-50
2023/06/01 03:43:42;;;;;;;6.57;3.17;;;16.10;99.90;;;;;;4992372;28;20526;-47
2023/06/01 03:46:08;;;;;;;8.80;2.95;;;16.00;99.90;;;;;;4992311;28;20030;-46
2023/06/01 03:48:34;;;;;;;6.80;2.53;;;16.00;99.90;;;;;;4992343;28;20070;-52
2023/06/01 03:51:00;;;;;;;4.57;2.80;;;16.00;99.90;;;;;;4991742;28;20073;-46
2023/06/01 03:53:25;;;;;;;11.18;3.28;;;16.00;99.90;;;;;;4991784;28;20030;-46
2023/06/01 03:55:52;;;;;;;9.85;2.58;;;16.00;99.90;;;;;;4992200;28;20026;-46
2023/06/01 03:58:19;;;;;;;4.22;2.22;;;16.00;99.90;;;;;;4992281;28;20054;-46
2023/06/01 04:00:46;;;;;;;5.25;2.50;;;16.00;99.90;;;;;;4991742;28;20153;-46
2023/06/01 04:03:13;;;;;;;4.32;2.80;;;16.10;99.90;;;;;;4991969;28;20023;-45
2023/06/01 04:05:38;;;;;;;5.45;2.38;;;16.10;99.90;;;;;;4992119;28;20026;-47
2023/06/01 04:08:04;;;;;;;5.57;2.65;;;16.10;99.90;;;;;;4991117;28;20022;-49
2023/06/01 04:10:30;;;;;;;5.50;2.92;;;16.20;99.90;;;;;;4991568;28;20081;-46
2023/06/01 04:12:55;;;;;;;7.45;2.72;;;16.20;99.90;;;;;;4991671;28;20040;-48
2023/06/01 04:15:22;;;;;;;6.25;2.13;;;16.20;99.90;;;;;;4992013;28;20025;-52
2023/06/01 04:17:48;;;;;;;4.43;3.60;;;16.20;99.90;;;;;;4992189;28;20037;-50
2023/06/01 04:20:16;;;;;;;3.75;2.15;;;16.20;99.90;;;;;;4991871;28;20027;-52
2023/06/01 04:22:43;;;;;;;8.98;2.22;;;16.20;99.90;;;;;;4991899;28;20426;-49
2023/06/01 04:25:17;;;;;;;11.82;2.90;;;16.30;99.90;;;;;;4992173;28;20014;-47
2023/06/01 04:27:44;;;;;;;9.45;3.00;;;16.30;99.90;;;;;;4992215;28;20048;-49
2023/06/01 04:30:11;;;;;;;5.40;3.20;;;16.40;99.90;;;;;;4991804;28;20074;-48
2023/06/01 04:32:40;;;;;;;4.68;2.42;;;16.40;99.90;;;;;;4991758;28;20034;-48
2023/06/01 04:35:07;;;;;;;4.47;2.45;;;16.50;99.90;;;;;;4991927;28;20027;-46
2023/06/01 04:37:34;;;;;;;10.18;2.88;;;16.60;99.90;;;;;;4995435;28;20026;-48
2023/06/01 04:40:07;;;;;;;6.95;2.60;;;16.70;99.90;;;;;;4995448;28;20113;-47
2023/06/01 04:42:33;;;;;;;4.13;2.63;;;16.70;99.90;;;;;;4995114;28;20026;-47
2023/06/01 04:45:00;;;;;;;8.13;2.53;;;16.90;99.80;;;;;;4995765;28;20026;-51
2023/06/01 04:47:25;;;;;;;5.10;3.10;;;17.00;99.70;;;;;;4995909;28;20037;-50
2023/06/01 04:49:50;;;;;;;6.00;2.80;;;17.10;99.20;;;;;;4995491;28;20019;-50
2023/06/01 04:52:16;;;;;;;4.25;2.55;;;17.20;99.20;;;;;;4995722;28;20096;-45
2023/06/01 04:54:42;;;;;;;6.15;2.45;;;17.40;99.10;;;;;;4995305;28;20030;-48
2023/06/01 04:57:07;;;;;;;8.13;2.35;;;17.60;98.50;;;;;;4995362;28;20029;-49
2023/06/01 04:59:33;;;;;;;4.25;2.53;;;17.70;98.20;;;;;;4995517;28;20398;-53
2023/06/01 05:01:59;;;;;;;5.40;2.13;;;17.90;97.90;;;;;;4994840;28;20464;-54
2023/06/01 05:04:25;;;;;;;4.82;2.30;;;18.00;98.10;;;;;;4995395;28;20018;-49
2023/06/01 05:06:50;;;;;;;7.47;2.72;;;18.30;97.40;;;;;;4995302;28;20474;-47
2023/06/01 05:09:18;;;;;;;10.13;2.42;;;18.60;97.10;;;;;;4994252;28;20023;-47
2023/06/01 05:11:43;;;;;;;6.40;2.40;;;18.80;96.90;;;;;;4994652;28;20050;-50
2023/06/01 05:14:09;;;;;;;4.68;2.28;;;19.10;96.20;;;;;;5009842;23;20034;-49
2023/06/01 05:16:34;;;;;;;4.95;2.50;;;19.40;95.60;;;;;;4992135;28;20034;-50
2023/06/01 05:19:00;;;;;;;6.40;3.00;;;19.60;95.10;;;;;;4991720;28;20019;-47
2023/06/01 05:21:25;;;;;;;5.32;2.50;;;19.90;95.10;;;;;;4975009;28;20035;-49
2023/06/01 05:23:51;;;;;;;5.45;3.08;;;20.10;94.10;;;;;;4974992;28;20026;-50
2023/06/01 05:26:16;;;;;;;4.47;2.28;;;20.40;93.80;;;;;;4974089;28;20050;-51
2023/06/01 05:28:42;;;;;;;7.15;1.77;;;20.70;93.60;;;;;;4975155;28;20451;-51
2023/06/01 05:31:07;;;;;;;8.40;2.58;;;21.20;92.60;;;;;;4974819;28;20039;-50
2023/06/01 05:33:33;;;;;;;7.88;1.92;;;21.60;91.70;;;;;;4974811;28;20235;-48
2023/06/01 05:35:58;;;;;;;4.13;1.90;;;21.60;91.80;;;;;;4973788;28;20113;-50
2023/06/01 05:38:24;;;;;;;4.75;2.22;;;21.80;91.40;;;;;;4975153;28;20434;-50
2023/06/01 05:40:50;;;;;;;5.00;2.35;;;22.00;91.40;;;;;;4974726;28;20031;-53
2023/06/01 05:43:15;;;;;;;4.47;1.88;;;22.10;90.40;;;;;;4974704;28;20015;-53
2023/06/01 05:45:41;;;;;;;5.93;2.30;;;22.40;90.20;;;;;;4973550;28;20023;-47
2023/06/01 05:48:06;;;;;;;6.07;2.05;;;22.50;89.90;;;;;;4973494;28;20122;-52
2023/06/01 05:50:32;;;;;;;4.28;1.95;;;22.50;90.30;;;;;;4974624;28;20495;-53
2023/06/01 05:52:57;;;;;;;4.03;1.80;;;22.70;88.40;;;;;;4975009;28;20054;-52
2023/06/01 05:55:23;;;;;;;3.28;2.10;;;22.80;88.60;;;;;;4973731;28;20033;-47
2023/06/01 05:57:48;;;;;;;7.75;2.05;;;23.00;88.30;;;;;;4974811;28;20035;-48
2023/06/01 06:00:15;;;;;;;8.73;2.22;;;22.70;88.20;;;;;;4974264;28;20026;-51
2023/06/01 06:02:44;;;;;;;6.53;2.17;;;23.20;87.80;;;;;;4974421;28;20406;-51
2023/06/01 06:05:10;;;;;;;9.02;2.60;;;23.60;87.00;;;;;;4973587;28;20027;-52
2023/06/01 06:07:36;;;;;;;4.88;2.40;;;23.60;86.80;;;;;;4973602;28;20542;-50
2023/06/01 06:10:03;;;;;;;6.22;1.80;;;23.80;85.50;;;;;;4974340;28;20027;-48
2023/06/01 06:12:29;;;;;;;5.30;2.00;;;24.30;84.20;;;;;;4974279;28;20027;-50
2023/06/01 06:14:55;;;;;;;4.55;2.15;;;24.60;83.80;;;;;;4974395;28;20479;-50
2023/06/01 06:17:21;;;;;;;5.15;2.10;;;24.60;83.40;;;;;;4974523;28;20093;-48
2023/06/01 06:19:47;;;;;;;4.72;2.20;;;24.90;82.00;;;;;;4972527;28;20066;-49
2023/06/01 06:22:13;;;;;;;3.72;1.83;;;25.50;81.90;;;;;;4974212;28;20030;-53
2023/06/01 06:24:38;;;;;;;6.93;2.60;;;26.40;79.80;;;;;;4972683;28;20022;-51
2023/06/01 06:27:05;;;;;;;4.07;1.88;;;27.00;78.00;;;;;;4974191;28;20067;-52
2023/06/01 06:29:31;;;;;;;5.43;1.98;;;27.00;77.80;;;;;;4974334;28;20031;-48
2023/06/01 06:31:57;;;;;;;3.33;1.90;;;26.70;77.80;;;;;;4973731;28;20034;-50
2023/06/01 06:34:22;;;;;;;3.95;1.98;;;26.90;77.30;;;;;;4973671;28;20105;-52
2023/06/01 06:36:47;;;;;;;4.88;1.83;;;27.20;75.60;;;;;;4974114;28;20029;-52
2023/06/01 06:39:13;;;;;;;5.13;1.70;;;27.30;74.90;;;;;;4974299;28;20034;-52
2023/06/01 06:41:42;;;;;;;6.82;2.15;;;27.30;74.60;;;;;;4972302;28;20114;-49
2023/06/01 06:44:08;;;;;;;3.22;1.73;;;27.60;74.20;;;;;;4973771;28;20035;-51
2023/06/01 06:46:33;;;;;;;5.57;1.60;;;28.10;73.00;;;;;;4973924;28;20019;-51
2023/06/01 06:48:59;;;;;;;10.43;2.53;;;27.70;72.70;;;;;;4973891;28;20030;-51
2023/06/01 06:51:24;;;;;;;6.85;1.92;;;27.80;72.60;;;;;;4973603;28;20118;-48
2023/06/01 06:53:50;;;;;;;4.07;1.83;;;27.40;73.30;;;;;;4973909;28;20029;-48
2023/06/01 06:56:16;;;;;;;10.13;1.98;;;27.60;73.40;;;;;;4973882;28;20073;-53
2023/06/01 06:58:41;;;;;;;2.13;1.75;;;28.40;72.20;;;;;;4973397;28;20058;-53
2023/06/01 07:01:07;;;;;;;3.47;1.75;;;29.10;69.80;;;;;;4973212;28;20407;-54
2023/06/01 07:03:33;;;;;;;8.50;2.25;;;29.00;70.40;;;;;;4973279;28;20058;-53
2023/06/01 07:05:58;;;;;;;3.17;1.95;;;28.90;69.90;;;;;;4973587;28;20390;-53
2023/06/01 07:08:23;;;;;;;4.32;1.63;;;29.50;68.60;;;;;;4972562;28;20030;-53
2023/06/01 07:10:49;;;;;;;3.55;1.70;;;29.60;68.90;;;;;;4973018;28;20487;-51
2023/06/01 07:13:15;;;;;;;5.30;1.77;;;29.40;68.70;;;;;;4973229;28;20050;-50
2023/06/01 07:15:40;;;;;;;3.35;1.75;;;29.30;68.30;;;;;;4973169;28;20030;-51
2023/06/01 07:18:06;;;;;;;1.90;1.30;;;29.30;67.80;;;;;;4973574;28;20035;-51
2023/06/01 07:20:32;;;;;;;2.35;2.03;;;29.30;68.20;;;;;;4972956;28;20022;-52
2023/06/01 07:22:57;;;;;;;4.13;1.75;;;29.10;68.30;;;;;;4972998;28;20125;-49
2023/06/01 07:25:23;;;;;;;3.13;1.92;;;28.90;68.30;;;;;;4973208;28;20105;-50
2023/06/01 07:27:49;;;;;;;3.20;1.85;;;29.20;68.90;;;;;;4973321;28;20027;-49
2023/06/01 07:30:15;;;;;;;7.22;1.95;;;29.30;67.60;;;;;;4972986;28;20034;-50
2023/06/01 07:32:41;;;;;;;5.85;1.95;;;29.60;67.60;;;;;;4973023;28;20475;-51
2023/06/01 07:35:07;;;;;;;4.75;1.60;;;29.50;67.90;;;;;;4973180;28;20105;-53
2023/06/01 07:37:33;;;;;;;9.35;1.90;;;30.00;68.10;;;;;;4973326;28;20038;-51
2023/06/01 07:39:58;;;;;;;4.07;1.58;;;30.40;66.80;;;;;;4972648;28;20376;-54
2023/06/01 07:42:24;;;;;;;7.03;1.98;;;30.50;66.50;;;;;;4972594;28;20053;-50
2023/06/01 07:44:51;;;;;;;9.10;2.45;;;31.10;66.20;;;;;;4972735;28;20149;-52
2023/06/01 07:47:16;;;;;;;3.70;1.83;;;32.10;64.00;;;;;;4973091;28;20022;-53
2023/06/01 07:49:42;;;;;;;7.35;2.15;;;32.30;63.50;;;;;;4973022;28;20372;-51
2023/06/01 07:52:08;;;;;;;7.82;2.30;;;31.70;63.80;;;;;;4972638;28;20408;-51
2023/06/01 07:54:37;;;;;;;6.97;1.85;;;31.50;64.60;;;;;;4972716;28;20015;-49
2023/06/01 07:57:04;;;;;;;6.53;2.20;;;31.70;64.50;;;;;;4973026;28;20042;-50
2023/06/01 07:59:31;;;;;;;10.75;2.53;;;32.30;62.60;;;;;;4987932;28;20027;-52
2023/06/01 08:01:57;;;;;;;3.95;1.63;;;32.60;63.00;;;;;;4972508;28;20028;-51
2023/06/01 08:04:23;;;;;;;5.80;2.03;;;32.30;63.00;;;;;;4972640;28;20037;-49
2023/06/01 08:06:52;;;;;;;3.47;1.77;;;31.40;64.00;;;;;;4972841;28;20380;-48
2023/06/01 08:09:21;;;;;;;6.28;1.60;;;30.10;63.50;;;;;;4971664;28;20057;-53
2023/06/01 08:11:48;;;;;;;8.77;2.33;;;30.10;64.70;;;;;;4971469;28;20101;-49
2023/06/01 08:14:15;;;;;;;7.05;2.15;;;29.90;65.40;;;;;;4972245;28;20393;-51
2023/06/01 08:16:41;;;;;;;9.82;2.08;;;29.90;65.10;;;;;;4973562;28;20031;-49
2023/06/01 08:19:07;;;;;;;4.90;1.50;;;30.10;65.30;;;;;;4982986;28;20041;-48
2023/06/01 08:21:34;;;;;;;5.55;2.97;;;30.60;64.00;;;;;;4991685;28;20058;-54
2023/06/01 08:24:01;;;;;;;2.63;1.80;;;30.10;64.20;;;;;;4990303;28;20124;-50
2023/06/01 08:26:27;;;;;;;9.55;1.85;;;28.40;66.50;;;;;;4991152;28;20085;-52
2023/06/01 08:28:53;;;;;;;4.20;1.70;;;28.10;68.20;;;;;;4988358;28;20026;-46
2023/06/01 08:31:23;;;;;;;6.75;2.15;;;28.10;69.20;;;;;;4990976;28;20026;-48
2023/06/01 08:33:50;;;;;;;4.00;2.20;;;28.20;67.20;;;;;;4990624;28;20022;-51
2023/06/01 08:36:17;;;;;;;7.13;2.13;;;27.80;67.70;;;;;;4991417;28;20026;-49
2023/06/01 08:38:43;;;;;;;7.68;1.67;;;27.50;69.00;;;;;;4991342;28;20036;-50
2023/06/01 08:41:20;;;;;;;8.35;2.90;;;27.20;69.20;;;;;;4991253;28;20406;-48
2023/06/01 08:43:55;;;;;;;8.18;2.08;;;27.00;69.80;;;;;;4991421;28;20034;-50
2023/06/01 08:46:21;;;;;;;;;;;26.90;70.30;;;;;;4991848;28;20469;-49
2023/06/01 08:48:52;;;;;;;2.30;1.58;;;26.90;69.30;;;;;;4988860;28;19952;-47
2023/06/01 08:51:17;;;;;;;9.07;2.17;;;27.00;70.70;;;;;;4991196;28;20076;-51
2023/06/01 08:53:45;;;;;;;4.75;1.90;;;27.10;68.30;;;;;;4990806;28;20030;-47
2023/06/01 08:56:10;;;;;;;5.93;1.90;;;27.20;69.00;;;;;;4991114;28;20053;-48
2023/06/01 08:58:36;;;;;;;7.85;2.72;;;27.40;69.70;;;;;;4991257;28;20046;-48
2023/06/01 09:01:02;;;;;;;2.47;2.00;;;27.50;69.40;;;;;;4991055;28;20446;-46
2023/06/01 09:03:28;;;;;;;2.58;1.50;;;27.60;69.90;;;;;;4990794;28;20058;-42
2023/06/01 09:05:53;;;;;;;13.50;1.80;;;26.90;68.40;;;;;;4990947;28;20038;-48
2023/06/01 09:08:22;;;;;;;7.43;1.98;;;26.50;68.80;;;;;;4991260;28;20057;-45
2023/06/01 09:10:47;;;;;;;5.43;2.55;;;26.80;68.60;;;;;;4990216;28;20453;-46
2023/06/01 09:13:13;;;;;;;5.80;2.03;;;26.90;68.40;;;;;;4990002;28;20034;-50
2023/06/01 09:15:52;;;;;;;5.60;2.45;;;26.60;69.70;;;;;;4991078;28;20030;-48
2023/06/01 09:18:18;;;;;;;4.10;1.70;;;26.70;69.60;;;;;;4991149;28;20114;-48
2023/06/01 09:20:44;;;;;;;3.25;1.60;;;26.80;69.30;;;;;;4987431;28;20102;-46
2023/06/01 09:23:10;;;;;;;6.45;2.22;;;26.90;68.50;;;;;;4992691;28;20044;-50
2023/06/01 09:25:35;;;;;;;3.55;1.95;;;26.60;68.40;;;;;;4994201;28;20443;-48
2023/06/01 09:28:02;;;;;;;3.03;1.83;;;26.80;69.40;;;;;;4994778;28;20139;-45
2023/06/01 09:30:44;;;;;;;5.55;1.70;;;26.60;68.70;;;;;;4986877;28;20026;-46
2023/06/01 09:33:20;;;;;;;3.38;2.13;;;26.60;68.50;;;;;;4974865;28;20031;-48
2023/06/01 09:35:48;;;;;;;7.97;2.30;;;26.60;68.40;;;;;;4974868;28;20027;-48
2023/06/01 09:38:22;;;;;;;4.03;1.73;;;26.80;67.60;;;;;;4975169;28;20030;-51
2023/06/01 09:41:02;;;;;;;2.45;1.92;;;26.50;68.80;;;;;;4988879;28;20049;-48
2023/06/01 09:43:28;;;;;;;4.03;2.22;;;26.80;69.60;;;;;;4993055;28;20371;-45
2023/06/01 09:46:13;;;;;;;7.57;2.20;;;26.40;67.80;;;;;;4989811;28;20069;-44
2023/06/01 09:48:39;;;;;;;2.42;1.73;;;26.10;68.80;;;;;;4991988;28;20121;-49
2023/06/01 09:51:26;;;;;;;9.07;2.42;;;26.00;69.40;;;;;;4993639;28;20066;-45
2023/06/01 09:53:52;;;;;;;4.15;2.10;;;25.90;68.50;;;;;;4993313;28;20018;-46
2023/06/01 09:56:17;;;;;;;3.80;2.08;;;25.80;69.80;;;;;;4994662;28;20110;-45
2023/06/01 09:58:43;;;;;;;4.68;1.92;;;25.50;68.60;;;;;;4993858;28;20113;-45
2023/06/01 10:01:09;;;;;;;5.15;1.95;;;25.50;69.30;;;;;;4993483;28;20022;-46
2023/06/01 10:03:36;;;;;;;8.10;2.25;;;25.80;69.50;;;;;;4993289;28;20142;-46
2023/06/01 10:06:03;;;;;;;4.25;1.95;;;26.10;69.20;;;;;;4993887;28;20034;-47
2023/06/01 10:08:30;;;;;;;4.30;1.40;;;26.10;69.20;;;;;;4992379;28;20030;-49
2023/06/01 10:10:56;;;;;;;4.85;1.95;;;26.10;68.00;;;;;;4991192;28;20029;-52
2023/06/01 10:13:24;;;;;;;11.35;2.53;;;26.40;66.70;;;;;;4992047;28;20030;-51
2023/06/01 10:15:54;;;;;;;6.10;1.98;;;26.70;67.40;;;;;;4992635;28;20023;-51
2023/06/01 10:18:21;;;;;;;5.07;1.80;;;26.80;69.00;;;;;;4993252;28;20014;-47
2023/06/01 10:20:46;;;;;;;3.92;1.77;;;26.80;67.20;;;;;;4992724;28;20037;-56
2023/06/01 10:23:12;;;;;;;14.48;2.40;;;26.70;67.40;;;;;;4984745;28;20030;-51
2023/06/01 10:25:45;;;;;;;2.70;1.90;;;26.40;67.30;;;;;;4985490;28;20126;-55
2023/06/01 10:28:13;;;;;;;5.57;1.92;;;26.20;66.40;;;;;;4989118;28;20038;-58
2023/06/01 10:30:39;;;;;;;12.50;4.57;;;26.10;66.30;;;;;;4991854;28;20050;-53
2023/06/01 10:33:05;;;;;;;7.90;2.47;;;26.00;67.30;;;;;;4991949;28;20458;-58
2023/06/01 10:35:31;;;;;;;3.15;2.03;;;25.90;68.80;;;;;;4992870;28;20048;-51
2023/06/01 10:38:06;;;;;;;4.70;2.03;;;26.10;67.10;;;;;;4992486;28;20065;-62
2023/06/01 10:40:34;;;;;;;2.15;1.70;;;26.00;64.70;;;;;;4990709;28;20018;-60
2023/06/01 10:42:59;;;;;;;4.63;1.70;;;26.00;65.70;;;;;;4991924;28;20043;-63
2023/06/01 10:45:34;;;;;;;2.05;1.45;;;25.90;66.60;;;;;;4992566;28;20037;-60
2023/06/01 10:48:04;;;;;;;7.07;2.05;;;25.80;67.80;;;;;;4992527;28;20391;-56
2023/06/01 10:50:29;;;;;;;10.95;1.80;;;25.80;67.50;;;;;;4992081;28;20490;-58
2023/06/01 10:52:56;;;;;;;2.35;1.63;;;25.70;67.00;;;;;;4989982;28;20078;-60
2023/06/01 10:55:26;;;;;;;3.08;2.53;;;25.70;67.30;;;;;;4991089;28;20026;-62
2023/06/01 10:58:11;;;;;;;3.38;1.85;;;25.70;67.10;;;;;;4991975;28;20101;-61
2023/06/01 11:00:40;;;;;;;6.72;1.90;;;25.70;65.20;;;;;;4990231;28;20015;-59
2023/06/01 11:03:06;;;;;;;6.78;2.00;;;25.70;66.70;;;;;;4991546;28;20502;-60
2023/06/01 11:05:36;;;;;;;7.80;1.50;;;25.70;66.70;;;;;;4992217;28;20027;-60
2023/06/01 11:08:03;;;;;;;2.20;1.58;;;25.60;64.80;;;;;;4991693;28;20030;-61
2023/06/01 11:10:54;;;;;;;3.15;1.80;;;25.70;65.20;;;;;;4991726;28;20390;-51
2023/06/01 11:13:25;;;;;;;2.70;2.03;;;25.60;64.60;;;;;;4989073;28;20121;-54
2023/06/01 11:16:20;;;;;;;5.70;2.42;;;25.60;66.60;;;;;;4984163;28;20046;-55
2023/06/01 11:18:57;;;;;;;7.18;2.10;;;25.60;67.40;;;;;;4989907;28;20026;-55
2023/06/01 11:21:24;;;;;;;7.72;3.72;;;25.60;67.90;;;;;;4989907;28;20036;-60
2023/06/01 11:23:51;;;;;;;20.65;13.00;;;25.70;67.10;;;;;;4990766;28;20077;-59
2023/06/01 11:26:24;;;;;;;2.60;1.70;;;25.70;66.60;;;;;;4989379;28;20023;-60
2023/06/01 11:28:50;;;;;;;4.70;1.90;;;25.60;66.30;;;;;;4990218;28;20030;-59
2023/06/01 11:31:18;;;;;;;6.90;1.98;;;25.50;65.90;;;;;;4989635;28;20036;-59
2023/06/01 11:33:56;;;;;;;5.93;2.05;;;25.50;65.70;;;;;;4990363;28;20044;-58
2023/06/01 11:36:26;;;;;;;5.22;1.95;;;25.60;68.30;;;;;;4989369;28;20081;-52
2023/06/01 11:38:55;;;;;;;3.95;1.80;;;25.40;65.00;;;;;;4991497;28;20518;-56
2023/06/01 11:41:23;;;;;;;5.03;1.55;;;25.50;65.30;;;;;;4990161;28;20030;-51
2023/06/01 11:43:56;;;;;;;7.13;1.70;;;25.50;66.90;;;;;;4990335;28;20037;-57
2023/06/01 11:46:22;;;;;;;3.40;1.50;;;25.60;64.70;;;;;;4990868;28;20537;-55
2023/06/01 11:49:06;;;;;;;5.88;1.67;;;25.70;63.60;;;;;;4985818;28;20066;-47
2023/06/01 11:51:36;;;;;;;2.78;1.58;;;25.70;63.30;;;;;;4987730;28;20034;-51
2023/06/01 11:54:03;;;;;;;3.17;1.88;;;25.60;62.60;;;;;;4982716;28;20022;-46
2023/06/01 11:56:34;;;;;;;4.18;1.73;;;25.60;62.10;;;;;;4991100;28;20421;-50
2023/06/01 11:59:01;;;;;;;4.35;2.17;;;25.80;62.90;;;;;;4990167;28;20045;-53
2023/06/01 12:01:28;;;;;;;2.50;1.73;;;25.80;63.20;;;;;;4989628;28;20026;-50
2023/06/01 12:03:56;;;;;;;6.22;1.90;;;25.70;60.60;;;;;;4990076;28;20030;-51
2023/06/01 12:06:23;;;;;;;4.43;1.90;;;25.70;60.20;;;;;;4990684;28;20104;-52
2023/06/01 12:08:54;;;;;;;7.43;2.00;;;25.70;60.40;;;;;;4989119;28;20402;-47
2023/06/01 12:11:29;;;;;;;2.17;1.50;;;25.60;61.10;;;;;;4990475;28;20572;-50
2023/06/01 12:13:55;;;;;;;8.73;1.83;;;25.70;63.10;;;;;;4988017;28;20160;-57
2023/06/01 12:16:22;;;;;;;6.00;1.98;;;25.80;63.20;;;;;;4989409;28;20073;-52
2023/06/01 12:18:47;;;;;;;5.53;2.13;;;25.70;61.40;;;;;;4990492;28;20483;-53
2023/06/01 12:21:16;;;;;;;3.47;2.30;;;25.70;63.00;;;;;;4989973;28;20049;-55
2023/06/01 12:23:42;;;;;;;2.05;1.60;;;25.60;63.30;;;;;;4989470;28;20113;-57
2023/06/01 12:26:08;;;;;;;8.07;2.08;;;25.60;63.60;;;;;;4985037;28;20101;-58
2023/06/01 12:28:52;;;;;;;5.03;1.52;;;25.60;63.80;;;;;;4989682;28;20035;-58
2023/06/01 12:31:19;;;;;;;3.92;1.80;;;25.60;63.70;;;;;;4990196;28;20446;-58
2023/06/01 12:33:45;;;;;;;3.13;1.50;;;25.60;64.50;;;;;;4985216;28;20039;-57
2023/06/01 12:36:28;;;;;;;4.00;1.65;;;25.70;61.20;;;;;;4990216;28;20060;-50
2023/06/01 12:38:54;;;;;;;5.13;1.95;;;25.80;62.20;;;;;;4989307;28;20026;-58
2023/06/01 12:41:21;;;;;;;4.50;1.90;;;25.80;62.90;;;;;;4984206;28;20458;-59
2023/06/01 12:43:48;;;;;;;3.33;1.48;;;25.80;63.60;;;;;;4989812;28;20030;-59
2023/06/01 12:46:21;;;;;;;14.98;2.08;;;26.00;63.10;;;;;;4987891;28;20026;-55
2023/06/01 12:48:48;;;;;;;3.28;2.08;;;26.10;63.20;;;;;;4987232;28;20033;-54